sensor_id;sensor_type;location;lat;lon;timestamp;temperature;humidity
38746;DHT22;24488;0.000;0.000;2023-09-19T00:01:08;23.50;63.50
38746;DHT22;24488;0.000;0.000;2023-09-19T00:03:37;23.50;63.70
38746;DHT22;24488;0.000;0.000;2023-09-19T00:06:07;23.50;63.50
38746;DHT22;24488;0.000;0.000;2023-09-19T00:08:33;23.60;63.60
38746;DHT22;24488;0.000;0.000;2023-09-19T00:10:59;23.50;63.50
38746;DHT22;24488;0.000;0.000;2023-09-19T00:13:31;23.50;63.60
38746;DHT22;24488;0.000;0.000;2023-09-19T00:15:58;23.50;63.60
38746;DHT22;24488;0.000;0.000;2023-09-19T00:18:24;23.50;63.50
38746;DHT22;24488;0.000;0.000;2023-09-19T00:20:57;23.50;63.60
38746;DHT22;24488;0.000;0.000;2023-09-19T00:23:23;23.50;62.90
38746;DHT22;24488;0.000;0.000;2023-09-19T00:25:50;23.50;63.50
38746;DHT22;24488;0.000;0.000;2023-09-19T00:28:16;23.50;63.50
38746;DHT22;24488;0.000;0.000;2023-09-19T00:30:44;23.50;63.70
38746;DHT22;24488;0.000;0.000;2023-09-19T00:33:10;23.60;63.50
38746;DHT22;24488;0.000;0.000;2023-09-19T00:35:51;23.50;63.50
38746;DHT22;24488;0.000;0.000;2023-09-19T00:38:17;23.50;63.60
38746;DHT22;24488;0.000;0.000;2023-09-19T00:40:46;23.50;63.60
38746;DHT22;24488;0.000;0.000;2023-09-19T00:43:12;23.50;63.60
38746;DHT22;24488;0.000;0.000;2023-09-19T00:45:38;23.50;63.60
38746;DHT22;24488;0.000;0.000;2023-09-19T00:48:06;23.50;63.60
38746;DHT22;24488;0.000;0.000;2023-09-19T00:50:34;23.60;63.70
38746;DHT22;24488;0.000;0.000;2023-09-19T00:53:01;23.50;63.80
38746;DHT22;24488;0.000;0.000;2023-09-19T00:55:27;23.50;63.60
38746;DHT22;24488;0.000;0.000;2023-09-19T00:57:58;23.40;63.50
38746;DHT22;24488;0.000;0.000;2023-09-19T01:00:23;23.50;63.60
38746;DHT22;24488;0.000;0.000;2023-09-19T01:02:49;23.50;63.60
38746;DHT22;24488;0.000;0.000;2023-09-19T01:05:15;23.60;63.70
38746;DHT22;24488;0.000;0.000;2023-09-19T01:07:41;23.60;63.60
38746;DHT22;24488;0.000;0.000;2023-09-19T01:10:11;23.40;63.40
38746;DHT22;24488;0.000;0.000;2023-09-19T01:20:39;23.50;63.50
38746;DHT22;24488;0.000;0.000;2023-09-19T01:28:54;23.50;63.60
38746;DHT22;24488;0.000;0.000;2023-09-19T01:31:38;23.50;63.60
38746;DHT22;24488;0.000;0.000;2023-09-19T01:34:05;23.50;63.70
38746;DHT22;24488;0.000;0.000;2023-09-19T01:36:33;23.40;63.60
38746;DHT22;24488;0.000;0.000;2023-09-19T01:39:07;23.50;63.80
38746;DHT22;24488;0.000;0.000;2023-09-19T01:41:41;23.50;63.50
38746;DHT22;24488;0.000;0.000;2023-09-19T01:44:17;23.50;63.60
38746;DHT22;24488;0.000;0.000;2023-09-19T01:46:48;23.50;63.60
38746;DHT22;24488;0.000;0.000;2023-09-19T01:52:14;23.50;63.60
38746;DHT22;24488;0.000;0.000;2023-09-19T01:54:56;23.50;63.50
38746;DHT22;24488;0.000;0.000;2023-09-19T01:57:38;23.50;63.70
38746;DHT22;24488;0.000;0.000;2023-09-19T02:00:09;23.50;63.60
38746;DHT22;24488;0.000;0.000;2023-09-19T02:02:44;23.50;63.60
38746;DHT22;24488;0.000;0.000;2023-09-19T02:05:10;23.40;63.50
38746;DHT22;24488;0.000;0.000;2023-09-19T02:07:38;23.40;63.50
38746;DHT22;24488;0.000;0.000;2023-09-19T02:10:04;23.50;63.70
38746;DHT22;24488;0.000;0.000;2023-09-19T02:12:31;23.50;63.70
38746;DHT22;24488;0.000;0.000;2023-09-19T02:14:58;23.40;63.50
38746;DHT22;24488;0.000;0.000;2023-09-19T02:17:24;23.50;63.60
38746;DHT22;24488;0.000;0.000;2023-09-19T02:19:53;23.80;63.80
38746;DHT22;24488;0.000;0.000;2023-09-19T02:22:20;23.50;63.50
38746;DHT22;24488;0.000;0.000;2023-09-19T02:24:50;23.40;63.50
38746;DHT22;24488;0.000;0.000;2023-09-19T02:27:16;23.50;63.60
38746;DHT22;24488;0.000;0.000;2023-09-19T02:29:43;23.40;63.50
38746;DHT22;24488;0.000;0.000;2023-09-19T02:32:08;23.50;63.60
38746;DHT22;24488;0.000;0.000;2023-09-19T02:34:37;23.50;63.60
38746;DHT22;24488;0.000;0.000;2023-09-19T02:37:04;23.40;63.60
38746;DHT22;24488;0.000;0.000;2023-09-19T02:39:30;23.40;63.60
38746;DHT22;24488;0.000;0.000;2023-09-19T02:41:56;23.50;63.60
38746;DHT22;24488;0.000;0.000;2023-09-19T02:44:22;23.50;63.60
38746;DHT22;24488;0.000;0.000;2023-09-19T02:46:49;23.50;63.60
38746;DHT22;24488;0.000;0.000;2023-09-19T02:49:15;23.50;63.60
38746;DHT22;24488;0.000;0.000;2023-09-19T02:51:40;23.50;63.60
38746;DHT22;24488;0.000;0.000;2023-09-19T02:54:06;23.40;63.60
38746;DHT22;24488;0.000;0.000;2023-09-19T02:56:32;23.50;63.60
38746;DHT22;24488;0.000;0.000;2023-09-19T02:58:58;23.40;63.70
38746;DHT22;24488;0.000;0.000;2023-09-19T03:01:26;23.40;63.60
38746;DHT22;24488;0.000;0.000;2023-09-19T03:03:53;23.50;63.60
38746;DHT22;24488;0.000;0.000;2023-09-19T03:06:19;23.40;63.50
38746;DHT22;24488;0.000;0.000;2023-09-19T03:08:45;23.40;63.50
38746;DHT22;24488;0.000;0.000;2023-09-19T03:11:12;23.50;63.60
38746;DHT22;24488;0.000;0.000;2023-09-19T03:13:40;23.50;63.60
38746;DHT22;24488;0.000;0.000;2023-09-19T03:16:07;23.40;63.50
38746;DHT22;24488;0.000;0.000;2023-09-19T03:18:34;23.50;63.70
38746;DHT22;24488;0.000;0.000;2023-09-19T03:20:59;23.50;63.60
38746;DHT22;24488;0.000;0.000;2023-09-19T03:23:25;23.40;63.00
38746;DHT22;24488;0.000;0.000;2023-09-19T03:25:52;23.40;63.50
38746;DHT22;24488;0.000;0.000;2023-09-19T03:28:21;23.50;63.70
38746;DHT22;24488;0.000;0.000;2023-09-19T03:31:02;23.50;63.60
38746;DHT22;24488;0.000;0.000;2023-09-19T03:33:29;23.40;62.90
38746;DHT22;24488;0.000;0.000;2023-09-19T03:35:57;23.40;63.50
38746;DHT22;24488;0.000;0.000;2023-09-19T03:38:27;23.40;63.60
38746;DHT22;24488;0.000;0.000;2023-09-19T03:40:54;23.40;63.50
38746;DHT22;24488;0.000;0.000;2023-09-19T03:43:19;23.40;63.50
38746;DHT22;24488;0.000;0.000;2023-09-19T03:45:45;23.50;63.70
38746;DHT22;24488;0.000;0.000;2023-09-19T03:48:12;23.60;63.70
38746;DHT22;24488;0.000;0.000;2023-09-19T03:50:38;23.40;63.60
38746;DHT22;24488;0.000;0.000;2023-09-19T03:53:04;23.50;63.60
38746;DHT22;24488;0.000;0.000;2023-09-19T03:55:29;23.60;63.70
38746;DHT22;24488;0.000;0.000;2023-09-19T03:57:58;23.50;63.60
38746;DHT22;24488;0.000;0.000;2023-09-19T04:00:23;23.50;63.60
38746;DHT22;24488;0.000;0.000;2023-09-19T04:02:52;23.40;63.60
38746;DHT22;24488;0.000;0.000;2023-09-19T04:05:18;23.40;63.50
38746;DHT22;24488;0.000;0.000;2023-09-19T04:07:44;23.50;63.70
38746;DHT22;24488;0.000;0.000;2023-09-19T04:10:09;23.40;63.50
38746;DHT22;24488;0.000;0.000;2023-09-19T04:12:37;23.40;63.50
38746;DHT22;24488;0.000;0.000;2023-09-19T04:15:06;23.40;63.50
38746;DHT22;24488;0.000;0.000;2023-09-19T04:17:32;23.50;63.60
38746;DHT22;24488;0.000;0.000;2023-09-19T04:20:01;23.50;63.50
38746;DHT22;24488;0.000;0.000;2023-09-19T04:22:26;23.40;63.50
38746;DHT22;24488;0.000;0.000;2023-09-19T04:24:52;23.40;64.10
38746;DHT22;24488;0.000;0.000;2023-09-19T04:27:18;23.60;63.70
38746;DHT22;24488;0.000;0.000;2023-09-19T04:29:44;23.60;63.60
38746;DHT22;24488;0.000;0.000;2023-09-19T04:32:09;23.40;63.50
38746;DHT22;24488;0.000;0.000;2023-09-19T04:34:35;23.40;63.60
38746;DHT22;24488;0.000;0.000;2023-09-19T04:37:01;23.40;63.60
38746;DHT22;24488;0.000;0.000;2023-09-19T04:39:28;23.40;63.70
38746;DHT22;24488;0.000;0.000;2023-09-19T04:41:54;23.40;63.50
38746;DHT22;24488;0.000;0.000;2023-09-19T04:44:20;23.60;63.80
38746;DHT22;24488;0.000;0.000;2023-09-19T04:46:46;23.40;63.70
38746;DHT22;24488;0.000;0.000;2023-09-19T04:49:11;23.40;63.60
38746;DHT22;24488;0.000;0.000;2023-09-19T04:51:38;23.40;63.50
38746;DHT22;24488;0.000;0.000;2023-09-19T04:54:03;23.40;63.50
38746;DHT22;24488;0.000;0.000;2023-09-19T04:56:29;23.40;63.50
38746;DHT22;24488;0.000;0.000;2023-09-19T04:58:55;23.40;63.50
38746;DHT22;24488;0.000;0.000;2023-09-19T05:01:20;23.40;63.50
38746;DHT22;24488;0.000;0.000;2023-09-19T05:03:48;23.60;63.70
38746;DHT22;24488;0.000;0.000;2023-09-19T05:06:21;23.50;63.60
38746;DHT22;24488;0.000;0.000;2023-09-19T05:08:50;23.40;63.50
38746;DHT22;24488;0.000;0.000;2023-09-19T05:11:18;23.40;63.60
38746;DHT22;24488;0.000;0.000;2023-09-19T05:13:45;23.40;63.50
38746;DHT22;24488;0.000;0.000;2023-09-19T05:16:10;23.40;63.50
38746;DHT22;24488;0.000;0.000;2023-09-19T05:18:36;23.40;63.50
38746;DHT22;24488;0.000;0.000;2023-09-19T05:21:02;23.40;63.50
38746;DHT22;24488;0.000;0.000;2023-09-19T05:23:28;23.40;63.50
38746;DHT22;24488;0.000;0.000;2023-09-19T05:25:53;23.40;63.60
38746;DHT22;24488;0.000;0.000;2023-09-19T05:28:19;23.50;63.60
38746;DHT22;24488;0.000;0.000;2023-09-19T05:30:45;23.40;63.50
38746;DHT22;24488;0.000;0.000;2023-09-19T05:33:12;23.40;63.50
38746;DHT22;24488;0.000;0.000;2023-09-19T05:35:38;23.40;63.50
38746;DHT22;24488;0.000;0.000;2023-09-19T05:38:07;23.40;63.50
38746;DHT22;24488;0.000;0.000;2023-09-19T05:40:34;23.50;63.70
38746;DHT22;24488;0.000;0.000;2023-09-19T05:43:00;23.40;63.50
38746;DHT22;24488;0.000;0.000;2023-09-19T05:45:27;23.40;63.50
38746;DHT22;24488;0.000;0.000;2023-09-19T05:47:53;23.40;63.50
38746;DHT22;24488;0.000;0.000;2023-09-19T05:50:29;23.40;63.60
38746;DHT22;24488;0.000;0.000;2023-09-19T05:52:55;23.40;63.50
38746;DHT22;24488;0.000;0.000;2023-09-19T05:55:23;23.40;63.50
38746;DHT22;24488;0.000;0.000;2023-09-19T05:57:52;23.40;63.50
38746;DHT22;24488;0.000;0.000;2023-09-19T06:00:21;23.40;63.50
38746;DHT22;24488;0.000;0.000;2023-09-19T06:05:17;23.40;63.50
38746;DHT22;24488;0.000;0.000;2023-09-19T06:07:43;23.40;63.50
38746;DHT22;24488;0.000;0.000;2023-09-19T06:10:08;23.40;63.50
38746;DHT22;24488;0.000;0.000;2023-09-19T06:12:53;23.40;63.60
38746;DHT22;24488;0.000;0.000;2023-09-19T06:15:20;23.40;63.50
38746;DHT22;24488;0.000;0.000;2023-09-19T06:17:52;23.40;63.50
38746;DHT22;24488;0.000;0.000;2023-09-19T06:20:22;23.40;63.50
38746;DHT22;24488;0.000;0.000;2023-09-19T06:22:49;23.40;63.50
38746;DHT22;24488;0.000;0.000;2023-09-19T06:25:15;22.50;62.90
38746;DHT22;24488;0.000;0.000;2023-09-19T06:27:51;23.40;63.50
38746;DHT22;24488;0.000;0.000;2023-09-19T06:30:19;23.40;63.50
38746;DHT22;24488;0.000;0.000;2023-09-19T06:32:45;23.50;63.60
38746;DHT22;24488;0.000;0.000;2023-09-19T06:35:11;23.40;63.50
38746;DHT22;24488;0.000;0.000;2023-09-19T06:37:40;23.40;63.50
38746;DHT22;24488;0.000;0.000;2023-09-19T06:40:13;23.40;63.50
38746;DHT22;24488;0.000;0.000;2023-09-19T06:42:40;23.40;64.10
38746;DHT22;24488;0.000;0.000;2023-09-19T06:45:10;23.50;63.50
38746;DHT22;24488;0.000;0.000;2023-09-19T06:47:39;23.40;63.50
38746;DHT22;24488;0.000;0.000;2023-09-19T06:50:05;23.40;63.50
38746;DHT22;24488;0.000;0.000;2023-09-19T06:52:34;23.40;64.20
38746;DHT22;24488;0.000;0.000;2023-09-19T06:55:00;23.40;62.90
38746;DHT22;24488;0.000;0.000;2023-09-19T06:57:28;23.60;63.60
38746;DHT22;24488;0.000;0.000;2023-09-19T06:59:55;23.30;63.50
38746;DHT22;24488;0.000;0.000;2023-09-19T07:02:21;23.40;63.40
38746;DHT22;24488;0.000;0.000;2023-09-19T07:04:47;23.40;63.60
38746;DHT22;24488;0.000;0.000;2023-09-19T07:07:12;23.40;63.50
38746;DHT22;24488;0.000;0.000;2023-09-19T07:09:39;23.40;63.50
38746;DHT22;24488;0.000;0.000;2023-09-19T07:12:04;23.40;63.50
38746;DHT22;24488;0.000;0.000;2023-09-19T07:14:30;23.40;63.40
38746;DHT22;24488;0.000;0.000;2023-09-19T07:16:57;23.40;63.40
38746;DHT22;24488;0.000;0.000;2023-09-19T07:19:25;23.40;63.40
38746;DHT22;24488;0.000;0.000;2023-09-19T07:21:53;23.40;63.40
38746;DHT22;24488;0.000;0.000;2023-09-19T07:24:19;23.40;62.80
38746;DHT22;24488;0.000;0.000;2023-09-19T07:26:45;23.40;63.50
38746;DHT22;24488;0.000;0.000;2023-09-19T07:29:10;23.40;63.40
38746;DHT22;24488;0.000;0.000;2023-09-19T07:31:36;23.40;63.60
38746;DHT22;24488;0.000;0.000;2023-09-19T07:34:02;23.50;63.50
38746;DHT22;24488;0.000;0.000;2023-09-19T07:36:29;23.40;63.40
38746;DHT22;24488;0.000;0.000;2023-09-19T07:38:55;23.40;63.50
38746;DHT22;24488;0.000;0.000;2023-09-19T07:41:23;23.40;63.40
38746;DHT22;24488;0.000;0.000;2023-09-19T07:43:49;23.40;62.80
38746;DHT22;24488;0.000;0.000;2023-09-19T07:46:14;23.40;63.40
38746;DHT22;24488;0.000;0.000;2023-09-19T07:48:40;23.40;63.40
38746;DHT22;24488;0.000;0.000;2023-09-19T07:51:06;23.40;63.30
38746;DHT22;24488;0.000;0.000;2023-09-19T07:53:33;23.40;63.40
38746;DHT22;24488;0.000;0.000;2023-09-19T07:56:06;23.40;63.50
38746;DHT22;24488;0.000;0.000;2023-09-19T07:58:33;23.40;63.30
38746;DHT22;24488;0.000;0.000;2023-09-19T08:01:02;23.40;63.40
38746;DHT22;24488;0.000;0.000;2023-09-19T08:03:29;23.40;62.80
38746;DHT22;24488;0.000;0.000;2023-09-19T08:05:56;23.40;63.40
38746;DHT22;24488;0.000;0.000;2023-09-19T08:08:23;23.50;63.40
38746;DHT22;24488;0.000;0.000;2023-09-19T08:10:55;23.40;63.40
38746;DHT22;24488;0.000;0.000;2023-09-19T08:13:24;23.40;63.40
38746;DHT22;24488;0.000;0.000;2023-09-19T08:15:51;23.40;63.40
38746;DHT22;24488;0.000;0.000;2023-09-19T08:18:18;23.40;63.50
38746;DHT22;24488;0.000;0.000;2023-09-19T08:20:50;23.40;63.30
38746;DHT22;24488;0.000;0.000;2023-09-19T08:23:18;23.40;63.30
38746;DHT22;24488;0.000;0.000;2023-09-19T08:25:48;23.40;63.30
38746;DHT22;24488;0.000;0.000;2023-09-19T08:28:13;23.40;63.30
38746;DHT22;24488;0.000;0.000;2023-09-19T08:30:42;23.40;63.30
38746;DHT22;24488;0.000;0.000;2023-09-19T08:33:08;23.40;63.30
38746;DHT22;24488;0.000;0.000;2023-09-19T08:35:34;23.40;63.40
38746;DHT22;24488;0.000;0.000;2023-09-19T08:38:00;23.40;63.30
38746;DHT22;24488;0.000;0.000;2023-09-19T08:40:32;23.40;63.30
38746;DHT22;24488;0.000;0.000;2023-09-19T08:43:01;23.40;63.30
38746;DHT22;24488;0.000;0.000;2023-09-19T08:45:26;23.60;63.50
38746;DHT22;24488;0.000;0.000;2023-09-19T08:50:24;23.40;63.30
38746;DHT22;24488;0.000;0.000;2023-09-19T08:52:52;23.40;63.30
38746;DHT22;24488;0.000;0.000;2023-09-19T08:55:20;23.40;63.30
38746;DHT22;24488;0.000;0.000;2023-09-19T08:57:49;23.50;63.30
38746;DHT22;24488;0.000;0.000;2023-09-19T09:00:15;23.40;63.30
38746;DHT22;24488;0.000;0.000;2023-09-19T09:02:46;23.40;63.30
38746;DHT22;24488;0.000;0.000;2023-09-19T09:05:12;23.40;63.30
38746;DHT22;24488;0.000;0.000;2023-09-19T09:07:38;23.40;63.30
38746;DHT22;24488;0.000;0.000;2023-09-19T09:10:04;23.40;63.30
38746;DHT22;24488;0.000;0.000;2023-09-19T09:12:30;23.40;63.30
38746;DHT22;24488;0.000;0.000;2023-09-19T09:14:56;23.50;63.90
38746;DHT22;24488;0.000;0.000;2023-09-19T09:17:25;23.80;63.50
38746;DHT22;24488;0.000;0.000;2023-09-19T09:19:54;23.50;63.30
38746;DHT22;24488;0.000;0.000;2023-09-19T09:22:19;23.40;63.30
38746;DHT22;24488;0.000;0.000;2023-09-19T09:24:56;23.30;63.20
38746;DHT22;24488;0.000;0.000;2023-09-19T09:27:31;23.40;64.00
38746;DHT22;24488;0.000;0.000;2023-09-19T09:29:59;22.90;62.90
38746;DHT22;24488;0.000;0.000;2023-09-19T09:32:31;23.40;63.30
38746;DHT22;24488;0.000;0.000;2023-09-19T09:35:01;23.40;63.30
38746;DHT22;24488;0.000;0.000;2023-09-19T09:37:29;23.40;63.20
38746;DHT22;24488;0.000;0.000;2023-09-19T09:39:56;23.40;63.20
38746;DHT22;24488;0.000;0.000;2023-09-19T09:48:02;23.40;63.30
38746;DHT22;24488;0.000;0.000;2023-09-19T09:50:46;23.40;63.30
38746;DHT22;24488;0.000;0.000;2023-09-19T09:53:22;23.40;62.70
38746;DHT22;24488;0.000;0.000;2023-09-19T09:58:31;23.40;63.30
38746;DHT22;24488;0.000;0.000;2023-09-19T10:01:05;23.40;63.20
38746;DHT22;24488;0.000;0.000;2023-09-19T10:03:35;23.40;63.20
38746;DHT22;24488;0.000;0.000;2023-09-19T10:06:09;23.40;63.20
38746;DHT22;24488;0.000;0.000;2023-09-19T10:08:58;23.40;63.10
38746;DHT22;24488;0.000;0.000;2023-09-19T10:11:30;23.40;63.20
38746;DHT22;24488;0.000;0.000;2023-09-19T10:13:56;23.50;63.30
38746;DHT22;24488;0.000;0.000;2023-09-19T10:16:28;23.40;63.10
38746;DHT22;24488;0.000;0.000;2023-09-19T10:18:56;23.40;63.30
38746;DHT22;24488;0.000;0.000;2023-09-19T10:21:24;23.40;63.10
38746;DHT22;24488;0.000;0.000;2023-09-19T10:23:50;23.40;63.20
38746;DHT22;24488;0.000;0.000;2023-09-19T10:26:17;23.40;63.20
38746;DHT22;24488;0.000;0.000;2023-09-19T10:28:43;23.40;63.30
38746;DHT22;24488;0.000;0.000;2023-09-19T10:31:13;23.40;63.30
38746;DHT22;24488;0.000;0.000;2023-09-19T10:33:45;23.40;63.30
38746;DHT22;24488;0.000;0.000;2023-09-19T10:36:14;23.50;64.00
38746;DHT22;24488;0.000;0.000;2023-09-19T10:38:40;23.50;63.30
38746;DHT22;24488;0.000;0.000;2023-09-19T10:41:08;23.40;63.10
38746;DHT22;24488;0.000;0.000;2023-09-19T10:43:35;23.30;63.00
38746;DHT22;24488;0.000;0.000;2023-09-19T10:46:06;23.40;63.20
38746;DHT22;24488;0.000;0.000;2023-09-19T10:48:34;23.40;63.10
38746;DHT22;24488;0.000;0.000;2023-09-19T10:51:10;23.40;63.20
38746;DHT22;24488;0.000;0.000;2023-09-19T10:56:21;23.40;63.00
38746;DHT22;24488;0.000;0.000;2023-09-19T10:58:49;23.40;63.10
38746;DHT22;24488;0.000;0.000;2023-09-19T11:01:14;23.40;63.10
38746;DHT22;24488;0.000;0.000;2023-09-19T11:03:41;23.40;63.10
38746;DHT22;24488;0.000;0.000;2023-09-19T11:06:14;23.40;63.10
38746;DHT22;24488;0.000;0.000;2023-09-19T11:11:51;23.40;63.00
38746;DHT22;24488;0.000;0.000;2023-09-19T11:30:37;23.40;63.10
38746;DHT22;24488;0.000;0.000;2023-09-19T11:36:10;22.50;62.50
38746;DHT22;24488;0.000;0.000;2023-09-19T11:43:45;23.40;63.00
38746;DHT22;24488;0.000;0.000;2023-09-19T11:46:11;23.40;63.00
38746;DHT22;24488;0.000;0.000;2023-09-19T11:48:41;23.50;63.00
38746;DHT22;24488;0.000;0.000;2023-09-19T11:51:16;23.80;63.30
38746;DHT22;24488;0.000;0.000;2023-09-19T11:53:50;23.40;63.00
38746;DHT22;24488;0.000;0.000;2023-09-19T11:56:23;23.40;63.00
38746;DHT22;24488;0.000;0.000;2023-09-19T11:58:51;23.40;63.00
38746;DHT22;24488;0.000;0.000;2023-09-19T12:01:22;23.40;63.00
38746;DHT22;24488;0.000;0.000;2023-09-19T12:03:55;23.50;63.20
38746;DHT22;24488;0.000;0.000;2023-09-19T12:06:23;23.40;63.10
38746;DHT22;24488;0.000;0.000;2023-09-19T12:08:50;23.40;63.00
38746;DHT22;24488;0.000;0.000;2023-09-19T12:11:19;23.40;63.00
38746;DHT22;24488;0.000;0.000;2023-09-19T12:13:46;23.30;62.90
38746;DHT22;24488;0.000;0.000;2023-09-19T12:16:18;23.40;63.00
38746;DHT22;24488;0.000;0.000;2023-09-19T12:18:47;23.40;63.00
38746;DHT22;24488;0.000;0.000;2023-09-19T12:21:22;23.40;63.00
38746;DHT22;24488;0.000;0.000;2023-09-19T12:24:04;23.40;63.00
38746;DHT22;24488;0.000;0.000;2023-09-19T12:26:38;23.40;63.00
38746;DHT22;24488;0.000;0.000;2023-09-19T12:29:10;23.40;63.00
38746;DHT22;24488;0.000;0.000;2023-09-19T12:31:46;23.40;63.00
38746;DHT22;24488;0.000;0.000;2023-09-19T12:34:30;23.40;63.00
38746;DHT22;24488;0.000;0.000;2023-09-19T12:37:06;23.40;63.00
38746;DHT22;24488;0.000;0.000;2023-09-19T12:39:40;23.40;63.00
38746;DHT22;24488;0.000;0.000;2023-09-19T12:42:16;23.40;63.00
38746;DHT22;24488;0.000;0.000;2023-09-19T12:44:44;23.40;63.10
38746;DHT22;24488;0.000;0.000;2023-09-19T12:47:12;23.40;63.00
38746;DHT22;24488;0.000;0.000;2023-09-19T12:52:36;23.40;63.00
38746;DHT22;24488;0.000;0.000;2023-09-19T12:55:02;23.40;63.00
38746;DHT22;24488;0.000;0.000;2023-09-19T12:57:28;23.40;63.00
38746;DHT22;24488;0.000;0.000;2023-09-19T12:59:54;23.80;63.80
38746;DHT22;24488;0.000;0.000;2023-09-19T13:02:20;23.40;63.10
38746;DHT22;24488;0.000;0.000;2023-09-19T13:04:52;23.60;63.10
38746;DHT22;24488;0.000;0.000;2023-09-19T13:10:11;23.40;62.90
38746;DHT22;24488;0.000;0.000;2023-09-19T13:12:40;23.40;63.10
38746;DHT22;24488;0.000;0.000;2023-09-19T13:17:50;23.40;63.00
38746;DHT22;24488;0.000;0.000;2023-09-19T13:20:22;23.40;63.00
38746;DHT22;24488;0.000;0.000;2023-09-19T13:22:54;23.40;62.90
38746;DHT22;24488;0.000;0.000;2023-09-19T13:25:23;23.50;63.00
38746;DHT22;24488;0.000;0.000;2023-09-19T13:27:50;23.40;63.00
38746;DHT22;24488;0.000;0.000;2023-09-19T13:30:20;23.40;63.00
38746;DHT22;24488;0.000;0.000;2023-09-19T13:32:47;23.40;62.90
38746;DHT22;24488;0.000;0.000;2023-09-19T13:35:13;23.40;62.90
38746;DHT22;24488;0.000;0.000;2023-09-19T13:37:39;23.40;63.00
38746;DHT22;24488;0.000;0.000;2023-09-19T13:40:10;23.40;63.00
38746;DHT22;24488;0.000;0.000;2023-09-19T13:42:37;23.40;63.00
38746;DHT22;24488;0.000;0.000;2023-09-19T13:45:03;23.40;62.90
38746;DHT22;24488;0.000;0.000;2023-09-19T13:47:30;23.40;63.00
38746;DHT22;24488;0.000;0.000;2023-09-19T13:49:56;23.30;63.90
38746;DHT22;24488;0.000;0.000;2023-09-19T13:52:22;23.40;62.90
38746;DHT22;24488;0.000;0.000;2023-09-19T13:54:51;23.30;63.10
38746;DHT22;24488;0.000;0.000;2023-09-19T13:57:18;23.40;62.90
38746;DHT22;24488;0.000;0.000;2023-09-19T13:59:43;23.50;63.00
38746;DHT22;24488;0.000;0.000;2023-09-19T14:02:09;23.50;63.00
38746;DHT22;24488;0.000;0.000;2023-09-19T14:04:34;23.40;63.00
38746;DHT22;24488;0.000;0.000;2023-09-19T14:07:01;23.40;63.00
38746;DHT22;24488;0.000;0.000;2023-09-19T14:09:26;23.40;62.90
38746;DHT22;24488;0.000;0.000;2023-09-19T14:11:52;23.40;62.80
38746;DHT22;24488;0.000;0.000;2023-09-19T14:14:18;23.40;62.90
38746;DHT22;24488;0.000;0.000;2023-09-19T14:16:45;23.40;63.00
38746;DHT22;24488;0.000;0.000;2023-09-19T14:19:12;24.60;63.60
38746;DHT22;24488;0.000;0.000;2023-09-19T14:21:39;23.40;63.00
38746;DHT22;24488;0.000;0.000;2023-09-19T14:24:04;23.40;62.90
38746;DHT22;24488;0.000;0.000;2023-09-19T14:26:34;23.40;62.80
38746;DHT22;24488;0.000;0.000;2023-09-19T14:29:03;23.40;62.90
38746;DHT22;24488;0.000;0.000;2023-09-19T14:31:29;23.40;62.80
38746;DHT22;24488;0.000;0.000;2023-09-19T14:33:55;23.40;62.90
38746;DHT22;24488;0.000;0.000;2023-09-19T14:36:21;23.40;63.10
38746;DHT22;24488;0.000;0.000;2023-09-19T14:38:47;23.40;62.80
38746;DHT22;24488;0.000;0.000;2023-09-19T14:41:13;23.40;62.90
38746;DHT22;24488;0.000;0.000;2023-09-19T14:43:38;23.40;62.90
38746;DHT22;24488;0.000;0.000;2023-09-19T14:46:07;23.40;63.10
38746;DHT22;24488;0.000;0.000;2023-09-19T14:48:33;23.40;62.90
38746;DHT22;24488;0.000;0.000;2023-09-19T14:51:02;23.00;62.70
38746;DHT22;24488;0.000;0.000;2023-09-19T14:53:29;23.40;62.80
38746;DHT22;24488;0.000;0.000;2023-09-19T14:56:01;23.40;62.90
38746;DHT22;24488;0.000;0.000;2023-09-19T14:58:29;23.40;62.90
38746;DHT22;24488;0.000;0.000;2023-09-19T15:01:05;23.20;62.90
38746;DHT22;24488;0.000;0.000;2023-09-19T15:03:35;23.40;62.90
38746;DHT22;24488;0.000;0.000;2023-09-19T15:06:02;23.40;62.80
38746;DHT22;24488;0.000;0.000;2023-09-19T15:08:30;23.40;62.90
38746;DHT22;24488;0.000;0.000;2023-09-19T15:11:00;23.40;63.00
38746;DHT22;24488;0.000;0.000;2023-09-19T15:13:32;23.40;62.80
38746;DHT22;24488;0.000;0.000;2023-09-19T15:15:59;23.40;62.80
38746;DHT22;24488;0.000;0.000;2023-09-19T15:18:28;23.50;62.80
38746;DHT22;24488;0.000;0.000;2023-09-19T15:20:56;23.40;62.80
38746;DHT22;24488;0.000;0.000;2023-09-19T15:23:31;23.40;62.90
38746;DHT22;24488;0.000;0.000;2023-09-19T15:26:02;23.70;63.30
38746;DHT22;24488;0.000;0.000;2023-09-19T15:28:32;23.40;62.80
38746;DHT22;24488;0.000;0.000;2023-09-19T15:30:59;23.40;62.90
38746;DHT22;24488;0.000;0.000;2023-09-19T15:33:35;23.40;62.80
38746;DHT22;24488;0.000;0.000;2023-09-19T15:36:04;23.40;62.80
38746;DHT22;24488;0.000;0.000;2023-09-19T15:38:31;23.40;62.80
38746;DHT22;24488;0.000;0.000;2023-09-19T15:40:57;23.50;62.90
38746;DHT22;24488;0.000;0.000;2023-09-19T15:43:23;23.30;62.80
38746;DHT22;24488;0.000;0.000;2023-09-19T15:45:49;23.40;62.90
38746;DHT22;24488;0.000;0.000;2023-09-19T15:48:15;23.40;62.80
38746;DHT22;24488;0.000;0.000;2023-09-19T15:50:41;23.40;62.80
38746;DHT22;24488;0.000;0.000;2023-09-19T15:53:09;23.40;62.80
38746;DHT22;24488;0.000;0.000;2023-09-19T15:55:38;23.40;62.90
38746;DHT22;24488;0.000;0.000;2023-09-19T15:58:05;22.90;62.50
38746;DHT22;24488;0.000;0.000;2023-09-19T16:00:31;23.40;62.80
38746;DHT22;24488;0.000;0.000;2023-09-19T16:03:01;23.40;62.80
38746;DHT22;24488;0.000;0.000;2023-09-19T16:05:28;23.50;62.90
38746;DHT22;24488;0.000;0.000;2023-09-19T16:07:53;23.50;62.80
38746;DHT22;24488;0.000;0.000;2023-09-19T16:10:19;23.40;62.80
38746;DHT22;24488;0.000;0.000;2023-09-19T16:12:45;23.50;62.90
38746;DHT22;24488;0.000;0.000;2023-09-19T16:15:11;23.40;62.90
38746;DHT22;24488;0.000;0.000;2023-09-19T16:17:38;23.40;62.80
38746;DHT22;24488;0.000;0.000;2023-09-19T16:20:05;23.40;62.90
38746;DHT22;24488;0.000;0.000;2023-09-19T16:22:38;23.40;62.80
38746;DHT22;24488;0.000;0.000;2023-09-19T16:25:04;23.50;62.90
38746;DHT22;24488;0.000;0.000;2023-09-19T16:27:31;23.40;62.90
38746;DHT22;24488;0.000;0.000;2023-09-19T16:29:56;24.40;63.60
38746;DHT22;24488;0.000;0.000;2023-09-19T16:32:22;23.40;62.90
38746;DHT22;24488;0.000;0.000;2023-09-19T16:34:47;23.40;62.80
38746;DHT22;24488;0.000;0.000;2023-09-19T16:37:13;23.40;62.90
38746;DHT22;24488;0.000;0.000;2023-09-19T16:39:40;23.40;62.80
38746;DHT22;24488;0.000;0.000;2023-09-19T16:42:07;23.40;62.90
38746;DHT22;24488;0.000;0.000;2023-09-19T16:44:33;23.40;62.80
38746;DHT22;24488;0.000;0.000;2023-09-19T16:46:59;23.40;62.90
38746;DHT22;24488;0.000;0.000;2023-09-19T16:49:26;23.40;62.80
38746;DHT22;24488;0.000;0.000;2023-09-19T16:51:51;23.40;62.80
38746;DHT22;24488;0.000;0.000;2023-09-19T16:54:17;23.50;62.90
38746;DHT22;24488;0.000;0.000;2023-09-19T16:56:42;23.40;62.80
38746;DHT22;24488;0.000;0.000;2023-09-19T16:59:08;23.40;63.00